createdAt,value
2023-03-07T00:00:45.349Z,66.15
2023-03-07T00:03:14.294Z,65.68
2023-03-07T00:05:42.270Z,66.21
2023-03-07T00:08:10.168Z,65.60
2023-03-07T00:10:37.989Z,66.28
2023-03-07T00:13:05.783Z,65.39
2023-03-07T00:15:33.428Z,65.60
2023-03-07T00:18:02.316Z,66.25
2023-03-07T00:20:30.044Z,64.61
2023-03-07T00:22:57.675Z,64.95
2023-03-07T00:25:25.185Z,65.17
2023-03-07T00:27:52.750Z,65.37
2023-03-07T00:30:20.579Z,65.32
2023-03-07T00:32:48.119Z,64.64
2023-03-07T00:35:17.059Z,65.54
2023-03-07T00:37:44.655Z,64.56
2023-03-07T00:40:13.278Z,64.61
2023-03-07T00:42:40.801Z,64.58
2023-03-07T00:45:09.485Z,64.84
2023-03-07T00:47:37.068Z,64.24
2023-03-07T00:50:05.422Z,64.82
2023-03-07T00:52:34.909Z,64.70
2023-03-07T00:55:02.824Z,64.08
2023-03-07T00:57:30.505Z,64.28
2023-03-07T00:59:58.178Z,64.03
2023-03-07T01:02:26.146Z,65.00
2023-03-07T01:04:54.114Z,65.04
2023-03-07T01:07:21.674Z,64.13
2023-03-07T01:09:53.253Z,65.11
2023-03-07T01:12:21.120Z,65.46
2023-03-07T01:14:51.237Z,64.45
2023-03-07T01:17:19.242Z,65.08
2023-03-07T01:19:46.780Z,64.48
2023-03-07T01:22:14.375Z,65.44
2023-03-07T01:24:42.125Z,65.13
2023-03-07T01:27:11.252Z,65.57
2023-03-07T01:29:38.914Z,65.97
2023-03-07T01:32:06.929Z,66.89
2023-03-07T01:34:34.805Z,67.02
2023-03-07T01:37:02.398Z,67.84
2023-03-07T01:39:30.568Z,68.83
2023-03-07T01:42:02.308Z,70.48
2023-03-07T01:44:32.605Z,72.13
2023-03-07T01:47:01.057Z,73.11
2023-03-07T01:49:40.667Z,74.69
2023-03-07T01:52:11.161Z,75.00
2023-03-07T01:54:48.910Z,75.83
2023-03-07T01:57:20.469Z,76.20
2023-03-07T01:59:54.643Z,76.80
2023-03-07T02:02:23.553Z,78.75
2023-03-07T02:04:55.439Z,79.07
2023-03-07T02:07:25.788Z,79.25
2023-03-07T02:09:54.801Z,79.24
2023-03-07T02:12:23.275Z,80.41
2023-03-07T02:14:53.257Z,80.26
2023-03-07T02:17:21.281Z,80.61
2023-03-07T02:20:05.613Z,80.50
2023-03-07T02:22:33.258Z,81.65
2023-03-07T02:25:04.381Z,82.18
2023-03-07T02:27:37.209Z,81.78
2023-03-07T02:30:06.266Z,82.23
2023-03-07T02:32:34.099Z,81.92
2023-03-07T02:35:01.684Z,82.68
2023-03-07T02:37:33.660Z,82.47
2023-03-07T02:40:06.456Z,81.60
2023-03-07T02:42:39.804Z,82.77
2023-03-07T02:45:13.764Z,82.31
2023-03-07T02:47:42.982Z,82.91
2023-03-07T02:50:13.510Z,82.27
2023-03-07T02:52:43.436Z,81.99
2023-03-07T02:55:11.819Z,82.43
2023-03-07T02:57:46.229Z,82.24
2023-03-07T03:00:14.641Z,82.92
2023-03-07T03:02:42.353Z,82.59
2023-03-07T03:05:10.450Z,82.87
2023-03-07T03:07:38.238Z,82.85
2023-03-07T03:10:06.998Z,82.00
2023-03-07T03:12:34.859Z,81.33
2023-03-07T03:15:29.521Z,82.02
2023-03-07T03:17:57.889Z,82.19
2023-03-07T03:20:25.808Z,82.44
2023-03-07T03:22:53.875Z,82.15
2023-03-07T03:25:23.111Z,81.91
2023-03-07T03:27:51.171Z,80.58
2023-03-07T03:30:19.304Z,80.17
2023-03-07T03:32:48.327Z,80.23
2023-03-07T03:35:18.325Z,79.13
2023-03-07T03:37:47.281Z,79.25
2023-03-07T03:40:17.914Z,77.38
2023-03-07T03:42:47.414Z,78.69
2023-03-07T03:45:18.307Z,78.94
2023-03-07T03:47:48.357Z,78.00
2023-03-07T03:50:18.979Z,77.97
2023-03-07T03:52:46.562Z,77.61
2023-03-07T03:55:14.156Z,77.21
2023-03-07T03:57:42.172Z,77.64
2023-03-07T04:00:14.652Z,76.20
2023-03-07T04:02:42.443Z,77.19
2023-03-07T04:05:14.289Z,77.52
2023-03-07T04:07:43.245Z,76.81
2023-03-07T04:10:11.973Z,77.15
2023-03-07T04:12:39.711Z,78.13
2023-03-07T04:15:08.687Z,77.55
2023-03-07T04:17:37.034Z,77.53
2023-03-07T04:20:07.615Z,77.33
2023-03-07T04:22:35.425Z,76.57
2023-03-07T04:25:04.889Z,76.77
2023-03-07T04:27:34.243Z,77.82
2023-03-07T04:30:01.813Z,76.98
2023-03-07T04:32:29.667Z,76.59
2023-03-07T04:34:57.457Z,76.69
2023-03-07T04:37:25.068Z,76.59
2023-03-07T04:39:52.695Z,76.26
2023-03-07T04:42:22.515Z,75.55
2023-03-07T04:44:50.139Z,76.63
2023-03-07T04:47:19.091Z,76.31
2023-03-07T04:49:46.760Z,76.53
2023-03-07T04:52:15.364Z,76.38
2023-03-07T04:54:43.138Z,74.56
2023-03-07T04:57:10.896Z,73.56
2023-03-07T04:59:40.338Z,73.98
2023-03-07T05:02:12.576Z,74.51
2023-03-07T05:04:40.521Z,74.72
2023-03-07T05:07:08.942Z,75.89
2023-03-07T05:09:36.762Z,75.60
2023-03-07T05:12:05.173Z,75.55
2023-03-07T05:14:32.871Z,75.24
2023-03-07T05:17:01.776Z,74.67
2023-03-07T05:19:30.573Z,75.08
2023-03-07T05:21:58.893Z,74.80
2023-03-07T05:24:27.061Z,74.85
2023-03-07T05:26:55.076Z,75.11
2023-03-07T05:29:22.711Z,74.79
2023-03-07T05:31:50.245Z,73.78
2023-03-07T05:34:19.178Z,72.85
2023-03-07T05:36:48.014Z,72.96
2023-03-07T05:39:16.788Z,72.81
2023-03-07T05:41:44.370Z,73.34
2023-03-07T05:44:13.232Z,70.78
2023-03-07T05:46:40.782Z,71.62
2023-03-07T05:49:08.363Z,70.43
2023-03-07T05:51:37.255Z,71.23
2023-03-07T05:54:05.277Z,71.17
2023-03-07T05:56:33.135Z,71.01
2023-03-07T05:59:00.773Z,70.92
2023-03-07T06:01:28.681Z,69.97
2023-03-07T06:03:57.114Z,68.81
2023-03-07T06:06:24.688Z,69.99
2023-03-07T06:08:53.573Z,68.70
2023-03-07T06:11:21.350Z,68.82
2023-03-07T06:13:49.580Z,68.34
2023-03-07T06:16:17.109Z,68.42
2023-03-07T06:18:45.162Z,68.03
2023-03-07T06:21:19.354Z,67.62
2023-03-07T06:23:47.275Z,67.32
2023-03-07T06:26:20.515Z,67.38
2023-03-07T06:28:52.124Z,67.20
2023-03-07T06:31:21.129Z,67.18
2023-03-07T06:33:49.103Z,67.05
2023-03-07T06:36:19.979Z,66.94
2023-03-07T06:38:51.651Z,67.09
2023-03-07T06:41:20.694Z,67.43
2023-03-07T06:43:52.520Z,66.94
2023-03-07T06:46:24.353Z,67.04
2023-03-07T06:48:52.095Z,66.07
2023-03-07T06:51:21.059Z,66.07
2023-03-07T06:53:49.523Z,65.29
2023-03-07T06:56:17.275Z,65.78
2023-03-07T06:58:46.853Z,64.86
2023-03-07T07:01:17.858Z,64.70
2023-03-07T07:03:46.930Z,64.70
2023-03-07T07:06:14.550Z,65.40
2023-03-07T07:08:42.169Z,64.03
2023-03-07T07:11:10.925Z,62.94
2023-03-07T07:13:39.466Z,63.49
2023-03-07T07:16:09.726Z,64.05
2023-03-07T07:18:39.348Z,63.73
2023-03-07T07:21:08.830Z,62.07
2023-03-07T07:23:36.567Z,61.52
2023-03-07T07:26:05.637Z,61.92
2023-03-07T07:28:34.012Z,61.88
2023-03-07T07:31:01.656Z,61.32
2023-03-07T07:33:32.763Z,61.49
2023-03-07T07:36:00.478Z,63.55
2023-03-07T07:38:28.087Z,60.45
2023-03-07T07:40:56.121Z,60.95
2023-03-07T07:43:24.827Z,59.90
2023-03-07T07:46:04.910Z,60.99
2023-03-07T07:48:34.492Z,60.78
2023-03-07T07:51:02.962Z,60.42
2023-03-07T07:53:31.856Z,59.86
2023-03-07T07:55:59.605Z,58.80
2023-03-07T07:58:27.346Z,58.90
2023-03-07T08:00:55.701Z,60.36
2023-03-07T08:03:23.292Z,60.21
2023-03-07T08:05:52.304Z,58.51
2023-03-07T08:08:20.429Z,58.75
2023-03-07T08:10:48.788Z,58.07
2023-03-07T08:17:02.122Z,57.71
2023-03-07T08:19:29.988Z,58.25
2023-03-07T08:21:59.436Z,57.64
2023-03-07T08:24:39.908Z,57.34
2023-03-07T08:27:08.321Z,58.08
2023-03-07T08:29:36.078Z,56.93
2023-03-07T08:32:03.746Z,57.39
2023-03-07T08:34:34.020Z,56.94
2023-03-07T08:37:03.334Z,57.31
2023-03-07T08:39:30.838Z,56.43
2023-03-07T08:41:59.379Z,56.99
2023-03-07T08:44:27.164Z,56.25
2023-03-07T08:46:54.771Z,56.69
2023-03-07T08:49:22.323Z,56.54
2023-03-07T08:51:50.230Z,57.11
2023-03-07T08:54:19.169Z,56.85
2023-03-07T08:56:46.705Z,56.00
2023-03-07T08:59:14.276Z,56.39
2023-03-07T09:01:41.884Z,57.17
2023-03-07T09:04:09.580Z,56.40
2023-03-07T09:06:37.162Z,56.85
2023-03-07T09:09:05.908Z,57.27
2023-03-07T09:11:34.797Z,57.92
2023-03-07T09:14:02.388Z,57.24
2023-03-07T09:16:29.996Z,57.85
2023-03-07T09:18:57.583Z,58.22
2023-03-07T09:21:25.163Z,57.86
2023-03-07T09:23:52.840Z,56.96
2023-03-07T09:26:22.970Z,56.96
2023-03-07T09:28:51.908Z,57.34
2023-03-07T09:31:19.651Z,57.34
2023-03-07T09:33:47.374Z,57.39
2023-03-07T09:36:18.248Z,57.01
2023-03-07T09:38:46.892Z,57.35
2023-03-07T09:41:31.623Z,56.86
2023-03-07T09:44:09.385Z,57.33
2023-03-07T09:47:37.224Z,56.00
2023-03-07T09:50:13.067Z,56.77
2023-03-07T09:52:42.382Z,56.81
2023-03-07T09:55:13.824Z,55.65
2023-03-07T09:57:50.092Z,55.48
2023-03-07T10:00:23.258Z,55.45
2023-03-07T10:02:55.352Z,55.75
2023-03-07T10:05:31.448Z,55.09
2023-03-07T10:08:01.292Z,54.13
2023-03-07T10:10:37.752Z,54.90
2023-03-07T10:13:23.452Z,53.74
2023-03-07T10:15:57.324Z,54.46
2023-03-07T10:18:47.049Z,53.02
2023-03-07T10:21:25.037Z,53.59
2023-03-07T10:24:18.143Z,53.33
2023-03-07T10:26:51.973Z,51.68
2023-03-07T10:29:20.776Z,52.40
2023-03-07T10:31:56.261Z,52.52
2023-03-07T10:34:28.373Z,51.95
2023-03-07T10:37:08.933Z,51.60
2023-03-07T10:39:44.407Z,51.46
2023-03-07T10:42:13.794Z,52.13
2023-03-07T10:44:41.818Z,50.93
2023-03-07T10:47:19.678Z,50.35
2023-03-07T10:49:48.921Z,49.69
2023-03-07T10:52:29.785Z,48.83
2023-03-07T10:55:33.731Z,48.04
2023-03-07T10:58:16.858Z,46.94
2023-03-07T11:00:45.361Z,46.65
2023-03-07T11:03:35.289Z,46.93
2023-03-07T11:06:26.875Z,47.32
2023-03-07T11:08:56.028Z,47.48
2023-03-07T11:11:25.132Z,46.92
2023-03-07T11:14:09.263Z,46.03
2023-03-07T11:16:42.419Z,46.69
2023-03-07T11:19:31.034Z,46.00
2023-03-07T11:22:01.102Z,47.08
2023-03-07T11:24:30.551Z,47.32
2023-03-07T11:27:00.035Z,46.49
2023-03-07T11:29:29.290Z,46.44
2023-03-07T11:32:11.346Z,46.37
2023-03-07T11:34:44.943Z,46.72
2023-03-07T11:37:26.648Z,46.46
2023-03-07T11:40:06.252Z,46.74
2023-03-07T11:42:39.503Z,47.10
2023-03-07T11:45:17.814Z,47.08
2023-03-07T11:47:52.991Z,47.12
2023-03-07T11:50:26.472Z,46.72
2023-03-07T11:53:15.289Z,46.09
2023-03-07T11:55:50.013Z,46.88
2023-03-07T11:58:34.063Z,47.04
2023-03-07T12:01:15.075Z,46.39
2023-03-07T12:04:14.255Z,46.44
2023-03-07T12:06:52.967Z,45.89
2023-03-07T12:09:29.819Z,46.45
2023-03-07T12:12:29.903Z,45.89
2023-03-07T12:15:06.822Z,45.62
2023-03-07T12:17:47.712Z,45.10
2023-03-07T12:20:36.670Z,45.46
2023-03-07T12:23:11.692Z,45.02
2023-03-07T12:25:42.867Z,44.95
2023-03-07T12:28:18.709Z,44.91
2023-03-07T12:30:56.217Z,44.76
2023-03-07T12:33:32.039Z,44.65
2023-03-07T12:36:04.166Z,43.59
2023-03-07T12:38:40.453Z,44.37
2023-03-07T12:41:21.791Z,45.05
2023-03-07T12:43:55.074Z,45.29
2023-03-07T12:46:32.957Z,45.87
2023-03-07T12:49:09.717Z,46.79
2023-03-07T12:51:41.909Z,46.83
2023-03-07T12:54:16.126Z,46.45
2023-03-07T12:56:50.751Z,45.49
2023-03-07T12:59:20.558Z,45.85
2023-03-07T13:01:51.667Z,44.57
2023-03-07T13:04:24.181Z,45.44
2023-03-07T13:06:56.608Z,44.86
2023-03-07T13:09:27.864Z,44.75
2023-03-07T13:12:32.694Z,45.55
2023-03-07T13:15:01.684Z,45.78
2023-03-07T13:18:01.439Z,45.48
2023-03-07T13:21:06.919Z,45.15
2023-03-07T13:23:34.733Z,44.53
2023-03-07T13:26:07.577Z,44.83
2023-03-07T13:28:51.216Z,43.52
2023-03-07T13:31:26.778Z,42.60
2023-03-07T13:33:54.696Z,41.25
2023-03-07T13:36:34.464Z,42.01
2023-03-07T13:39:02.429Z,40.86
2023-03-07T13:41:48.354Z,40.85
2023-03-07T13:44:30.177Z,38.78
2023-03-07T13:47:02.703Z,39.90
2023-03-07T13:49:44.865Z,37.92
2023-03-07T13:52:42.865Z,37.16
2023-03-07T13:55:25.034Z,38.00
2023-03-07T13:57:58.439Z,38.84
2023-03-07T14:00:30.738Z,38.47
2023-03-07T14:02:58.590Z,39.75
2023-03-07T14:05:26.723Z,39.79
2023-03-07T14:07:54.772Z,39.46
2023-03-07T14:10:26.227Z,39.74
2023-03-07T14:13:25.483Z,38.94
2023-03-07T14:16:06.549Z,39.65
2023-03-07T14:18:51.075Z,41.32
2023-03-07T14:21:29.529Z,41.46
2023-03-07T14:24:23.337Z,43.37
2023-03-07T14:26:54.019Z,44.53
2023-03-07T14:29:24.983Z,44.98
2023-03-07T14:31:54.069Z,45.23
2023-03-07T14:34:28.110Z,45.17
2023-03-07T14:36:57.799Z,45.87
2023-03-07T14:39:27.962Z,46.05
2023-03-07T14:42:08.528Z,46.80
2023-03-07T14:45:07.662Z,47.39
2023-03-07T14:47:51.397Z,46.97
2023-03-07T14:50:21.069Z,47.34
2023-03-07T14:52:50.412Z,47.79
2023-03-07T14:55:20.758Z,47.76
2023-03-07T14:57:52.878Z,48.07
2023-03-07T15:00:28.370Z,48.19
2023-03-07T15:02:58.618Z,48.20
2023-03-07T15:05:31.717Z,48.93
2023-03-07T15:07:59.781Z,48.54
2023-03-07T15:10:31.240Z,48.66
2023-03-07T15:12:58.960Z,48.52
2023-03-07T15:15:32.749Z,48.29
2023-03-07T15:18:05.685Z,48.12
2023-03-07T15:20:34.523Z,48.41
2023-03-07T15:23:05.091Z,49.22
2023-03-07T15:25:33.540Z,48.62
2023-03-07T15:28:04.312Z,47.98
2023-03-07T15:30:35.512Z,48.13
2023-03-07T15:33:13.574Z,48.48
2023-03-07T15:35:41.337Z,48.50
2023-03-07T15:38:16.168Z,48.49
2023-03-07T15:40:44.146Z,48.74
2023-03-07T15:43:18.198Z,49.22
2023-03-07T15:46:01.636Z,49.20
2023-03-07T15:48:36.972Z,49.58
2023-03-07T15:51:07.210Z,49.74
2023-03-07T15:53:37.482Z,50.18
2023-03-07T15:56:10.176Z,50.33
2023-03-07T15:58:43.475Z,50.36
2023-03-07T16:01:21.311Z,50.16
2023-03-07T16:03:51.474Z,50.42
2023-03-07T16:06:35.468Z,50.31
2023-03-07T16:09:04.201Z,50.11
2023-03-07T16:11:32.152Z,50.54
2023-03-07T16:14:00.413Z,50.69
2023-03-07T16:16:31.296Z,50.87
2023-03-07T16:18:59.093Z,50.83
2023-03-07T16:21:27.306Z,50.90
2023-03-07T16:23:54.980Z,50.90
2023-03-07T16:26:24.161Z,50.84
2023-03-07T16:28:53.165Z,51.95
2023-03-07T16:31:21.186Z,51.43
2023-03-07T16:33:50.282Z,51.51
2023-03-07T16:36:18.562Z,52.18
2023-03-07T16:38:47.500Z,52.02
2023-03-07T16:41:21.057Z,51.78
2023-03-07T16:43:54.236Z,51.65
2023-03-07T16:46:23.156Z,52.10
2023-03-07T16:48:52.245Z,51.71
2023-03-07T16:51:21.600Z,51.86
2023-03-07T16:53:51.053Z,52.28
2023-03-07T16:56:26.189Z,52.61
2023-03-07T16:58:54.591Z,51.86
2023-03-07T17:01:22.243Z,52.14
2023-03-07T17:03:49.942Z,52.14
2023-03-07T17:06:25.281Z,51.74
2023-03-07T17:08:55.289Z,52.15
2023-03-07T17:11:25.371Z,51.84
2023-03-07T17:13:55.046Z,51.88
2023-03-07T17:16:22.925Z,52.02
2023-03-07T17:18:50.528Z,52.63
2023-03-07T17:21:21.528Z,52.72
2023-03-07T17:23:50.039Z,52.85
2023-03-07T17:26:23.007Z,52.70
2023-03-07T17:28:51.529Z,52.78
2023-03-07T17:31:19.128Z,52.18
2023-03-07T17:33:47.168Z,53.17
2023-03-07T17:36:14.772Z,52.42
2023-03-07T17:38:43.802Z,52.41
2023-03-07T17:41:11.386Z,52.84
2023-03-07T17:43:39.335Z,52.88
2023-03-07T17:46:10.006Z,53.58
2023-03-07T17:48:38.239Z,52.86
2023-03-07T17:51:09.105Z,52.98
2023-03-07T17:53:37.068Z,52.95
2023-03-07T17:56:10.455Z,52.84
2023-03-07T17:58:38.352Z,52.74
2023-03-07T18:01:07.724Z,53.29
2023-03-07T18:03:36.228Z,52.19
2023-03-07T18:06:04.083Z,53.16
2023-03-07T18:08:32.998Z,52.51
2023-03-07T18:11:04.377Z,53.01
2023-03-07T18:13:33.786Z,52.86
2023-03-07T18:20:10.952Z,53.15
2023-03-07T18:22:39.039Z,52.58
2023-03-07T18:25:09.099Z,51.89
2023-03-07T18:27:36.730Z,52.33
2023-03-07T18:30:06.820Z,52.16
2023-03-07T18:32:34.983Z,52.46
2023-03-07T18:35:02.646Z,52.99
2023-03-07T18:37:30.248Z,52.47
2023-03-07T18:39:57.825Z,51.93
2023-03-07T18:42:25.402Z,51.87
2023-03-07T18:44:52.954Z,52.34
2023-03-07T18:47:21.982Z,51.74
2023-03-07T18:49:51.042Z,51.68
2023-03-07T18:52:18.990Z,52.01
2023-03-07T18:54:48.776Z,51.84
2023-03-07T18:57:16.392Z,51.72
2023-03-07T18:59:43.953Z,52.14
2023-03-07T19:02:11.865Z,51.86
2023-03-07T19:04:40.844Z,51.98
2023-03-07T19:07:08.537Z,51.90
2023-03-07T19:09:36.144Z,52.27
2023-03-07T19:12:03.839Z,52.50
2023-03-07T19:14:33.081Z,52.66
2023-03-07T19:17:00.879Z,52.81
2023-03-07T19:19:29.617Z,52.53
2023-03-07T19:21:59.625Z,52.82
2023-03-07T19:24:29.477Z,53.47
2023-03-07T19:26:57.741Z,53.18
2023-03-07T19:29:25.422Z,52.76
2023-03-07T19:31:53.194Z,52.84
2023-03-07T19:34:20.879Z,52.63
2023-03-07T19:36:48.679Z,52.70
2023-03-07T19:39:20.349Z,52.55
2023-03-07T19:41:48.902Z,52.74
2023-03-07T19:44:17.072Z,52.65
2023-03-07T19:46:46.894Z,52.67
2023-03-07T19:49:14.530Z,52.01
2023-03-07T19:51:42.292Z,52.33
2023-03-07T19:54:13.788Z,51.87
2023-03-07T19:56:44.946Z,51.88
2023-03-07T19:59:13.816Z,51.39
2023-03-07T20:01:43.911Z,51.98
2023-03-07T20:04:13.122Z,51.92
2023-03-07T20:06:43.280Z,52.11
2023-03-07T20:09:13.218Z,52.63
2023-03-07T20:11:43.988Z,51.91
2023-03-07T20:14:13.176Z,52.29
2023-03-07T20:16:41.713Z,51.97
2023-03-07T20:19:10.767Z,51.82
2023-03-07T20:21:40.134Z,52.36
2023-03-07T20:24:09.146Z,51.96
2023-03-07T20:26:38.897Z,52.57
2023-03-07T20:29:09.534Z,52.73
2023-03-07T20:31:40.345Z,52.98
2023-03-07T20:34:08.873Z,52.04
2023-03-07T20:36:39.094Z,52.21
2023-03-07T20:39:13.098Z,51.86
2023-03-07T20:41:42.640Z,52.50
2023-03-07T20:44:14.372Z,51.65
2023-03-07T20:46:43.060Z,51.68
2023-03-07T20:49:14.027Z,51.91
2023-03-07T20:51:42.746Z,52.14
2023-03-07T20:54:14.309Z,52.22
2023-03-07T20:56:42.985Z,52.61
2023-03-07T20:59:15.302Z,52.88
2023-03-07T21:01:43.830Z,52.65
2023-03-07T21:04:17.570Z,52.16
2023-03-07T21:06:45.931Z,52.72
2023-03-07T21:09:15.002Z,52.88
2023-03-07T21:11:45.971Z,52.82
2023-03-07T21:14:16.244Z,53.20
2023-03-07T21:16:44.450Z,52.59
2023-03-07T21:19:12.641Z,52.57
2023-03-07T21:21:40.954Z,53.20
2023-03-07T21:24:09.763Z,53.25
2023-03-07T21:26:37.405Z,52.01
2023-03-07T21:29:05.676Z,53.11
2023-03-07T21:31:36.110Z,52.95
2023-03-07T21:34:06.193Z,52.15
2023-03-07T21:36:34.490Z,52.24
2023-03-07T21:39:04.034Z,52.77
2023-03-07T21:41:31.652Z,52.88
2023-03-07T21:43:59.919Z,51.96
2023-03-07T21:46:27.622Z,52.62
2023-03-07T21:48:59.407Z,52.68
2023-03-07T21:51:27.030Z,52.28
2023-03-07T21:53:54.610Z,52.74
2023-03-07T21:56:23.891Z,51.57
2023-03-07T21:58:52.692Z,52.83
2023-03-07T22:01:22.897Z,51.33
2023-03-07T22:03:52.496Z,51.11
2023-03-07T22:06:22.557Z,51.65
2023-03-07T22:08:50.204Z,51.57
2023-03-07T22:11:17.876Z,52.25
2023-03-07T22:13:45.443Z,51.79
2023-03-07T22:16:14.991Z,51.15
2023-03-07T22:18:42.766Z,51.85
2023-03-07T22:21:13.587Z,51.61
2023-03-07T22:23:42.916Z,50.78
2023-03-07T22:26:16.249Z,51.07
2023-03-07T22:28:47.184Z,51.41
2023-03-07T22:31:15.004Z,50.95
2023-03-07T22:33:42.869Z,50.74
2023-03-07T22:36:13.686Z,51.07
2023-03-07T22:38:43.049Z,51.71
2023-03-07T22:41:13.525Z,51.02
2023-03-07T22:43:41.224Z,51.32
2023-03-07T22:46:09.646Z,51.21
2023-03-07T22:48:37.417Z,51.55
2023-03-07T22:51:05.485Z,51.30
2023-03-07T22:53:35.472Z,52.10
2023-03-07T22:56:04.535Z,51.43
2023-03-07T22:58:32.117Z,51.31
2023-03-07T23:00:59.737Z,51.68
2023-03-07T23:03:27.349Z,51.28
2023-03-07T23:06:00.297Z,51.36
2023-03-07T23:08:27.891Z,51.55
2023-03-07T23:11:01.236Z,51.71
2023-03-07T23:13:30.232Z,51.25
2023-03-07T23:15:58.266Z,51.92
2023-03-07T23:18:26.037Z,52.27
2023-03-07T23:20:53.680Z,52.12
2023-03-07T23:23:21.382Z,51.94
2023-03-07T23:25:48.973Z,52.03
2023-03-07T23:28:16.568Z,52.04
2023-03-07T23:30:45.535Z,52.25
2023-03-07T23:33:13.354Z,52.89
2023-03-07T23:35:40.959Z,51.55
2023-03-07T23:38:08.684Z,52.00
2023-03-07T23:40:37.699Z,52.27
2023-03-07T23:43:06.562Z,51.92
2023-03-07T23:45:34.396Z,52.52
2023-03-07T23:48:03.315Z,52.32
2023-03-07T23:50:30.978Z,51.73
2023-03-07T23:52:58.538Z,52.72
2023-03-07T23:55:26.050Z,51.72
2023-03-07T23:57:53.626Z,52.65
